Pagrindinis puslapis
METAR-TAF:

METAR-TAF

Oro uostai :

Heraklionas, Graikija

platuma: 35-20N, ilguma: 025-11E, Aukštis: 37 m

Dabartinis oras

Ataskaita buvo paskelbta 35 minutes, ne 17:50 UTC
Ramus vėjas
Temperatūra 14°C
Drėgmė 88%
Slėgis 1021 hPa
Matomumas 10 km arba daugiau
nėra debesų žemiau 1500 m ir nėra kamuolinių lietaus debesų

METAR: LGIR 121750Z 00000KT CAVOK 14/12 Q1021 NOSIG

Laikas: 21:25 (18:25 UTC)

Prognozė

Ataskaita buvo paskelbta 1 valandą ir 25 minutes, ne 17:00 UTC
Prognozė galioja nuo 12 metu 18 UTC su 13 metu 18 UTC
Vėjas 10 kt iš Šiaurės/Šiaurės Vakarų
Matomumas 10 km arba daugiau
Išsisklaidę debesys ne aukštis 2500 ft
Tapsmas
nuo 12 metu 18 UTC su 12 metu 20 UTC
Vėjas 10 kt iš Pietų
Tapsmas
nuo 13 metu 06 UTC su 13 metu 08 UTC
Vėjas 10 kt iš Šiaurės Rytų

TAF: LGIR 121700Z 1218/1318 34010KT 9999 SCT025 BECMG 1218/1220 18010KT BECMG 1306/1308 05010KT

Orai ataskaitas ir orų prognozės (METAR, TAF).

turimą stotys yra geltonos ir raudonos taškus žemėlapyje.

Perkelti pele per norėdami pamatyti stoties vardą.

Tada spustelėkite, norėdami matyti oro stebėjimo ir prognozės.

Norėdami pakeisti žemėlapį: spustelėkite ant žalios mygtukų su juodo kryžiaus žemyn,; žalią mygtuką su brūkšneliu, jei norite nutolinti; arba žalių rodyklių gretimoms žemėlapius.


METAR-TAF: